sensor_id;sensor_type;location;lat;lon;timestamp;P1;durP1;ratioP1;P2;durP2;ratioP2
10967;SDS011;5536;49.602;10.980;2023-11-21T00:00:14;1.03;;;0.80;;
10967;SDS011;5536;49.602;10.980;2023-11-21T00:02:42;1.10;;;0.83;;
10967;SDS011;5536;49.602;10.980;2023-11-21T00:05:10;0.77;;;0.77;;
10967;SDS011;5536;49.602;10.980;2023-11-21T00:07:39;11.57;;;0.80;;
10967;SDS011;5536;49.602;10.980;2023-11-21T00:10:08;0.67;;;0.37;;
10967;SDS011;5536;49.602;10.980;2023-11-21T00:12:37;0.40;;;0.40;;
10967;SDS011;5536;49.602;10.980;2023-11-21T00:15:07;2.90;;;1.00;;
10967;SDS011;5536;49.602;10.980;2023-11-21T00:17:35;0.60;;;0.60;;
10967;SDS011;5536;49.602;10.980;2023-11-21T00:20:03;0.67;;;0.67;;
10967;SDS011;5536;49.602;10.980;2023-11-21T00:22:32;4.27;;;0.70;;
10967;SDS011;5536;49.602;10.980;2023-11-21T00:24:59;4.63;;;0.83;;
10967;SDS011;5536;49.602;10.980;2023-11-21T00:27:27;1.30;;;0.90;;
10967;SDS011;5536;49.602;10.980;2023-11-21T00:29:54;0.60;;;0.60;;
10967;SDS011;5536;49.602;10.980;2023-11-21T00:32:21;0.90;;;0.80;;
10967;SDS011;5536;49.602;10.980;2023-11-21T00:34:48;1.57;;;0.93;;
10967;SDS011;5536;49.602;10.980;2023-11-21T00:37:15;0.70;;;0.70;;
10967;SDS011;5536;49.602;10.980;2023-11-21T00:39:42;2.10;;;0.77;;
10967;SDS011;5536;49.602;10.980;2023-11-21T00:42:09;0.67;;;0.67;;
10967;SDS011;5536;49.602;10.980;2023-11-21T00:44:38;0.67;;;0.67;;
10967;SDS011;5536;49.602;10.980;2023-11-21T00:47:05;1.53;;;0.50;;
10967;SDS011;5536;49.602;10.980;2023-11-21T00:49:33;0.80;;;0.63;;
10967;SDS011;5536;49.602;10.980;2023-11-21T00:52:00;0.60;;;0.60;;
10967;SDS011;5536;49.602;10.980;2023-11-21T00:54:27;0.70;;;0.70;;
10967;SDS011;5536;49.602;10.980;2023-11-21T00:56:54;3.30;;;0.70;;
10967;SDS011;5536;49.602;10.980;2023-11-21T00:59:21;0.50;;;0.50;;
10967;SDS011;5536;49.602;10.980;2023-11-21T01:01:50;1.43;;;1.10;;
10967;SDS011;5536;49.602;10.980;2023-11-21T01:04:19;0.60;;;0.60;;
10967;SDS011;5536;49.602;10.980;2023-11-21T01:06:46;1.53;;;0.80;;
10967;SDS011;5536;49.602;10.980;2023-11-21T01:09:13;1.30;;;0.53;;
10967;SDS011;5536;49.602;10.980;2023-11-21T01:11:42;0.90;;;0.80;;
10967;SDS011;5536;49.602;10.980;2023-11-21T01:14:09;0.60;;;0.60;;
10967;SDS011;5536;49.602;10.980;2023-11-21T01:16:36;0.70;;;0.70;;
10967;SDS011;5536;49.602;10.980;2023-11-21T01:19:04;0.90;;;0.90;;
10967;SDS011;5536;49.602;10.980;2023-11-21T01:21:31;1.20;;;0.60;;
10967;SDS011;5536;49.602;10.980;2023-11-21T01:23:58;1.50;;;0.50;;
10967;SDS011;5536;49.602;10.980;2023-11-21T01:26:25;1.80;;;0.70;;
10967;SDS011;5536;49.602;10.980;2023-11-21T01:28:52;0.70;;;0.70;;
10967;SDS011;5536;49.602;10.980;2023-11-21T01:31:19;2.63;;;1.37;;
10967;SDS011;5536;49.602;10.980;2023-11-21T01:33:46;0.53;;;0.53;;
10967;SDS011;5536;49.602;10.980;2023-11-21T01:36:15;0.80;;;0.80;;
10967;SDS011;5536;49.602;10.980;2023-11-21T01:38:42;1.30;;;0.90;;
10967;SDS011;5536;49.602;10.980;2023-11-21T01:41:09;1.50;;;0.80;;
10967;SDS011;5536;49.602;10.980;2023-11-21T01:43:38;0.50;;;0.50;;
10967;SDS011;5536;49.602;10.980;2023-11-21T01:46:05;0.70;;;0.70;;
10967;SDS011;5536;49.602;10.980;2023-11-21T01:48:32;0.77;;;0.77;;
10967;SDS011;5536;49.602;10.980;2023-11-21T01:51:00;8.73;;;0.87;;
10967;SDS011;5536;49.602;10.980;2023-11-21T01:53:29;0.80;;;0.80;;
10967;SDS011;5536;49.602;10.980;2023-11-21T01:55:55;1.70;;;0.70;;
10967;SDS011;5536;49.602;10.980;2023-11-21T01:58:23;1.13;;;0.83;;
10967;SDS011;5536;49.602;10.980;2023-11-21T02:00:50;0.80;;;0.80;;
10967;SDS011;5536;49.602;10.980;2023-11-21T02:03:19;1.00;;;0.83;;
10967;SDS011;5536;49.602;10.980;2023-11-21T02:05:47;2.87;;;0.53;;
10967;SDS011;5536;49.602;10.980;2023-11-21T02:08:14;1.23;;;0.90;;
10967;SDS011;5536;49.602;10.980;2023-11-21T02:10:42;5.57;;;0.90;;
10967;SDS011;5536;49.602;10.980;2023-11-21T02:13:09;0.70;;;0.70;;
10967;SDS011;5536;49.602;10.980;2023-11-21T02:15:36;1.00;;;0.90;;
10967;SDS011;5536;49.602;10.980;2023-11-21T02:18:04;0.80;;;0.80;;
10967;SDS011;5536;49.602;10.980;2023-11-21T02:20:32;1.00;;;1.00;;
10967;SDS011;5536;49.602;10.980;2023-11-21T02:23:08;0.77;;;0.77;;
10967;SDS011;5536;49.602;10.980;2023-11-21T02:25:35;1.20;;;1.10;;
10967;SDS011;5536;49.602;10.980;2023-11-21T02:28:03;0.80;;;0.80;;
10967;SDS011;5536;49.602;10.980;2023-11-21T02:30:31;2.47;;;0.90;;
10967;SDS011;5536;49.602;10.980;2023-11-21T02:32:59;0.70;;;0.70;;
10967;SDS011;5536;49.602;10.980;2023-11-21T02:35:26;1.07;;;0.97;;
10967;SDS011;5536;49.602;10.980;2023-11-21T02:37:53;1.77;;;1.00;;
10967;SDS011;5536;49.602;10.980;2023-11-21T02:40:22;1.17;;;1.00;;
10967;SDS011;5536;49.602;10.980;2023-11-21T02:42:50;0.90;;;0.90;;
10967;SDS011;5536;49.602;10.980;2023-11-21T02:45:17;1.47;;;1.10;;
10967;SDS011;5536;49.602;10.980;2023-11-21T02:47:49;4.10;;;1.07;;
10967;SDS011;5536;49.602;10.980;2023-11-21T02:50:18;1.47;;;0.97;;
10967;SDS011;5536;49.602;10.980;2023-11-21T02:52:45;1.23;;;1.13;;
10967;SDS011;5536;49.602;10.980;2023-11-21T02:55:12;4.43;;;1.00;;
10967;SDS011;5536;49.602;10.980;2023-11-21T02:57:40;0.87;;;0.87;;
10967;SDS011;5536;49.602;10.980;2023-11-21T03:00:08;1.20;;;1.10;;
10967;SDS011;5536;49.602;10.980;2023-11-21T03:02:38;5.60;;;1.20;;
10967;SDS011;5536;49.602;10.980;2023-11-21T03:05:05;1.17;;;1.10;;
10967;SDS011;5536;49.602;10.980;2023-11-21T03:07:34;1.17;;;0.90;;
10967;SDS011;5536;49.602;10.980;2023-11-21T03:10:01;2.70;;;1.37;;
10967;SDS011;5536;49.602;10.980;2023-11-21T03:12:29;0.90;;;0.90;;
10967;SDS011;5536;49.602;10.980;2023-11-21T03:14:57;1.13;;;1.00;;
10967;SDS011;5536;49.602;10.980;2023-11-21T03:17:24;2.00;;;0.87;;
10967;SDS011;5536;49.602;10.980;2023-11-21T03:19:51;0.77;;;0.77;;
10967;SDS011;5536;49.602;10.980;2023-11-21T03:22:19;0.93;;;0.93;;
10967;SDS011;5536;49.602;10.980;2023-11-21T03:24:46;3.60;;;1.23;;
10967;SDS011;5536;49.602;10.980;2023-11-21T03:27:13;2.17;;;1.20;;
10967;SDS011;5536;49.602;10.980;2023-11-21T03:29:40;1.03;;;0.90;;
10967;SDS011;5536;49.602;10.980;2023-11-21T03:32:08;0.70;;;0.70;;
10967;SDS011;5536;49.602;10.980;2023-11-21T03:34:49;1.10;;;1.10;;
10967;SDS011;5536;49.602;10.980;2023-11-21T03:37:20;1.93;;;0.93;;
10967;SDS011;5536;49.602;10.980;2023-11-21T03:39:47;1.23;;;0.97;;
10967;SDS011;5536;49.602;10.980;2023-11-21T03:42:14;1.07;;;0.80;;
10967;SDS011;5536;49.602;10.980;2023-11-21T03:44:41;0.90;;;0.90;;
10967;SDS011;5536;49.602;10.980;2023-11-21T03:47:09;1.90;;;0.93;;
10967;SDS011;5536;49.602;10.980;2023-11-21T03:49:36;0.73;;;0.73;;
10967;SDS011;5536;49.602;10.980;2023-11-21T03:52:04;0.80;;;0.80;;
10967;SDS011;5536;49.602;10.980;2023-11-21T03:54:32;1.00;;;1.00;;
10967;SDS011;5536;49.602;10.980;2023-11-21T03:57:01;5.00;;;1.00;;
10967;SDS011;5536;49.602;10.980;2023-11-21T03:59:28;1.20;;;1.10;;
10967;SDS011;5536;49.602;10.980;2023-11-21T04:01:55;1.00;;;1.00;;
10967;SDS011;5536;49.602;10.980;2023-11-21T04:04:24;0.77;;;0.77;;
10967;SDS011;5536;49.602;10.980;2023-11-21T04:06:51;1.67;;;1.37;;
10967;SDS011;5536;49.602;10.980;2023-11-21T04:09:18;1.50;;;0.90;;
10967;SDS011;5536;49.602;10.980;2023-11-21T04:11:45;1.77;;;1.10;;
10967;SDS011;5536;49.602;10.980;2023-11-21T04:14:13;1.60;;;1.07;;
10967;SDS011;5536;49.602;10.980;2023-11-21T04:16:40;1.20;;;1.10;;
10967;SDS011;5536;49.602;10.980;2023-11-21T04:19:08;1.13;;;1.07;;
10967;SDS011;5536;49.602;10.980;2023-11-21T04:21:37;1.27;;;1.10;;
10967;SDS011;5536;49.602;10.980;2023-11-21T04:24:07;1.33;;;1.20;;
10967;SDS011;5536;49.602;10.980;2023-11-21T04:26:34;1.07;;;0.80;;
10967;SDS011;5536;49.602;10.980;2023-11-21T04:29:01;0.83;;;0.83;;
10967;SDS011;5536;49.602;10.980;2023-11-21T04:31:28;0.93;;;0.93;;
10967;SDS011;5536;49.602;10.980;2023-11-21T04:33:55;1.00;;;1.00;;
10967;SDS011;5536;49.602;10.980;2023-11-21T04:36:22;1.00;;;1.00;;
10967;SDS011;5536;49.602;10.980;2023-11-21T04:38:51;1.10;;;1.10;;
10967;SDS011;5536;49.602;10.980;2023-11-21T04:41:18;1.13;;;1.13;;
10967;SDS011;5536;49.602;10.980;2023-11-21T04:43:44;1.20;;;1.10;;
10967;SDS011;5536;49.602;10.980;2023-11-21T04:46:11;1.10;;;1.00;;
10967;SDS011;5536;49.602;10.980;2023-11-21T04:48:38;2.63;;;1.10;;
10967;SDS011;5536;49.602;10.980;2023-11-21T04:51:06;2.30;;;1.37;;
10967;SDS011;5536;49.602;10.980;2023-11-21T04:53:33;2.67;;;1.37;;
10967;SDS011;5536;49.602;10.980;2023-11-21T04:56:02;1.50;;;1.40;;
10967;SDS011;5536;49.602;10.980;2023-11-21T04:58:30;1.00;;;1.00;;
10967;SDS011;5536;49.602;10.980;2023-11-21T05:00:58;1.13;;;1.13;;
10967;SDS011;5536;49.602;10.980;2023-11-21T05:03:25;1.20;;;1.10;;
10967;SDS011;5536;49.602;10.980;2023-11-21T05:05:52;3.40;;;1.30;;
10967;SDS011;5536;49.602;10.980;2023-11-21T05:08:19;3.57;;;1.37;;
10967;SDS011;5536;49.602;10.980;2023-11-21T05:10:47;0.83;;;0.83;;
10967;SDS011;5536;49.602;10.980;2023-11-21T05:13:16;0.90;;;0.90;;
10967;SDS011;5536;49.602;10.980;2023-11-21T05:15:43;2.13;;;1.47;;
10967;SDS011;5536;49.602;10.980;2023-11-21T05:18:10;2.50;;;1.37;;
10967;SDS011;5536;49.602;10.980;2023-11-21T05:20:38;2.37;;;1.30;;
10967;SDS011;5536;49.602;10.980;2023-11-21T05:23:06;1.77;;;1.00;;
10967;SDS011;5536;49.602;10.980;2023-11-21T05:25:33;1.03;;;1.00;;
10967;SDS011;5536;49.602;10.980;2023-11-21T05:28:00;1.00;;;1.00;;
10967;SDS011;5536;49.602;10.980;2023-11-21T05:30:29;1.10;;;1.00;;
10967;SDS011;5536;49.602;10.980;2023-11-21T05:32:56;1.00;;;1.00;;
10967;SDS011;5536;49.602;10.980;2023-11-21T05:35:23;1.77;;;1.10;;
10967;SDS011;5536;49.602;10.980;2023-11-21T05:37:50;1.13;;;1.10;;
10967;SDS011;5536;49.602;10.980;2023-11-21T05:40:17;1.13;;;1.10;;
10967;SDS011;5536;49.602;10.980;2023-11-21T05:42:44;1.33;;;1.00;;
10967;SDS011;5536;49.602;10.980;2023-11-21T05:45:11;4.20;;;1.47;;
10967;SDS011;5536;49.602;10.980;2023-11-21T05:47:40;2.63;;;1.57;;
10967;SDS011;5536;49.602;10.980;2023-11-21T05:50:09;1.13;;;1.07;;
10967;SDS011;5536;49.602;10.980;2023-11-21T05:52:37;1.80;;;1.30;;
10967;SDS011;5536;49.602;10.980;2023-11-21T05:55:06;1.00;;;1.00;;
10967;SDS011;5536;49.602;10.980;2023-11-21T05:57:33;1.63;;;1.50;;
10967;SDS011;5536;49.602;10.980;2023-11-21T06:00:02;1.97;;;1.50;;
10967;SDS011;5536;49.602;10.980;2023-11-21T06:02:36;1.90;;;1.40;;
10967;SDS011;5536;49.602;10.980;2023-11-21T06:05:06;1.10;;;1.00;;
10967;SDS011;5536;49.602;10.980;2023-11-21T06:07:34;1.10;;;1.10;;
10967;SDS011;5536;49.602;10.980;2023-11-21T06:10:01;1.43;;;1.33;;
10967;SDS011;5536;49.602;10.980;2023-11-21T06:12:34;1.27;;;1.27;;
10967;SDS011;5536;49.602;10.980;2023-11-21T06:15:01;1.53;;;1.13;;
10967;SDS011;5536;49.602;10.980;2023-11-21T06:17:30;0.90;;;0.90;;
10967;SDS011;5536;49.602;10.980;2023-11-21T06:19:57;1.73;;;1.47;;
10967;SDS011;5536;49.602;10.980;2023-11-21T06:22:25;1.27;;;1.20;;
10967;SDS011;5536;49.602;10.980;2023-11-21T06:24:52;1.20;;;1.20;;
10967;SDS011;5536;49.602;10.980;2023-11-21T06:27:19;1.67;;;1.57;;
10967;SDS011;5536;49.602;10.980;2023-11-21T06:29:46;7.67;;;1.63;;
10967;SDS011;5536;49.602;10.980;2023-11-21T06:32:13;5.50;;;1.73;;
10967;SDS011;5536;49.602;10.980;2023-11-21T06:34:41;1.50;;;1.40;;
10967;SDS011;5536;49.602;10.980;2023-11-21T06:37:08;1.60;;;1.43;;
10967;SDS011;5536;49.602;10.980;2023-11-21T06:39:37;1.80;;;1.27;;
10967;SDS011;5536;49.602;10.980;2023-11-21T06:42:05;4.07;;;1.63;;
10967;SDS011;5536;49.602;10.980;2023-11-21T06:44:32;1.53;;;1.33;;
10967;SDS011;5536;49.602;10.980;2023-11-21T06:47:00;2.37;;;1.60;;
10967;SDS011;5536;49.602;10.980;2023-11-21T06:49:27;2.07;;;1.87;;
10967;SDS011;5536;49.602;10.980;2023-11-21T06:51:54;1.50;;;1.37;;
10967;SDS011;5536;49.602;10.980;2023-11-21T06:54:21;4.60;;;1.77;;
10967;SDS011;5536;49.602;10.980;2023-11-21T06:56:50;1.63;;;1.53;;
10967;SDS011;5536;49.602;10.980;2023-11-21T06:59:18;2.30;;;1.40;;
10967;SDS011;5536;49.602;10.980;2023-11-21T07:01:45;3.63;;;1.87;;
10967;SDS011;5536;49.602;10.980;2023-11-21T07:04:12;2.23;;;1.80;;
10967;SDS011;5536;49.602;10.980;2023-11-21T07:06:39;2.07;;;1.87;;
10967;SDS011;5536;49.602;10.980;2023-11-21T07:09:06;5.23;;;2.13;;
10967;SDS011;5536;49.602;10.980;2023-11-21T07:11:34;2.00;;;1.77;;
10967;SDS011;5536;49.602;10.980;2023-11-21T07:14:04;3.43;;;1.77;;
10967;SDS011;5536;49.602;10.980;2023-11-21T07:16:32;2.07;;;1.90;;
10967;SDS011;5536;49.602;10.980;2023-11-21T07:19:02;3.07;;;2.03;;
10967;SDS011;5536;49.602;10.980;2023-11-21T07:21:31;1.67;;;1.57;;
10967;SDS011;5536;49.602;10.980;2023-11-21T07:23:58;2.10;;;1.80;;
10967;SDS011;5536;49.602;10.980;2023-11-21T07:26:26;1.63;;;1.53;;
10967;SDS011;5536;49.602;10.980;2023-11-21T07:28:53;2.03;;;1.93;;
10967;SDS011;5536;49.602;10.980;2023-11-21T07:31:22;3.17;;;1.83;;
10967;SDS011;5536;49.602;10.980;2023-11-21T07:33:49;4.20;;;1.80;;
10967;SDS011;5536;49.602;10.980;2023-11-21T07:36:17;1.80;;;1.70;;
10967;SDS011;5536;49.602;10.980;2023-11-21T07:38:45;5.27;;;1.90;;
10967;SDS011;5536;49.602;10.980;2023-11-21T07:41:12;2.77;;;1.90;;
10967;SDS011;5536;49.602;10.980;2023-11-21T07:43:40;1.77;;;1.67;;
10967;SDS011;5536;49.602;10.980;2023-11-21T07:46:07;3.37;;;2.50;;
10967;SDS011;5536;49.602;10.980;2023-11-21T07:48:36;1.90;;;1.80;;
10967;SDS011;5536;49.602;10.980;2023-11-21T07:51:03;1.80;;;1.70;;
10967;SDS011;5536;49.602;10.980;2023-11-21T07:53:30;1.70;;;1.60;;
10967;SDS011;5536;49.602;10.980;2023-11-21T07:55:57;1.73;;;1.63;;
10967;SDS011;5536;49.602;10.980;2023-11-21T07:58:25;2.27;;;2.07;;
10967;SDS011;5536;49.602;10.980;2023-11-21T08:00:52;2.00;;;1.77;;
10967;SDS011;5536;49.602;10.980;2023-11-21T08:03:19;2.00;;;1.80;;
10967;SDS011;5536;49.602;10.980;2023-11-21T08:05:47;3.53;;;1.97;;
10967;SDS011;5536;49.602;10.980;2023-11-21T08:08:14;6.47;;;2.20;;
10967;SDS011;5536;49.602;10.980;2023-11-21T08:10:43;2.07;;;1.83;;
10967;SDS011;5536;49.602;10.980;2023-11-21T08:13:21;1.60;;;1.50;;
10967;SDS011;5536;49.602;10.980;2023-11-21T08:15:48;2.67;;;2.07;;
10967;SDS011;5536;49.602;10.980;2023-11-21T08:18:15;9.63;;;2.90;;
10967;SDS011;5536;49.602;10.980;2023-11-21T08:20:43;2.20;;;1.73;;
10967;SDS011;5536;49.602;10.980;2023-11-21T08:23:14;2.33;;;1.73;;
10967;SDS011;5536;49.602;10.980;2023-11-21T08:25:42;1.67;;;1.57;;
10967;SDS011;5536;49.602;10.980;2023-11-21T08:28:09;3.73;;;2.27;;
10967;SDS011;5536;49.602;10.980;2023-11-21T08:30:36;4.07;;;2.07;;
10967;SDS011;5536;49.602;10.980;2023-11-21T08:33:04;3.43;;;2.17;;
10967;SDS011;5536;49.602;10.980;2023-11-21T08:35:32;2.50;;;2.30;;
10967;SDS011;5536;49.602;10.980;2023-11-21T08:37:59;1.60;;;1.50;;
10967;SDS011;5536;49.602;10.980;2023-11-21T08:40:27;1.60;;;1.50;;
10967;SDS011;5536;49.602;10.980;2023-11-21T08:42:54;1.90;;;1.80;;
10967;SDS011;5536;49.602;10.980;2023-11-21T08:45:23;1.80;;;1.70;;
10967;SDS011;5536;49.602;10.980;2023-11-21T08:47:51;2.33;;;1.90;;
10967;SDS011;5536;49.602;10.980;2023-11-21T08:50:18;5.17;;;2.20;;
10967;SDS011;5536;49.602;10.980;2023-11-21T08:52:46;2.47;;;2.20;;
10967;SDS011;5536;49.602;10.980;2023-11-21T08:55:14;4.10;;;2.73;;
10967;SDS011;5536;49.602;10.980;2023-11-21T08:57:43;4.53;;;3.10;;
10967;SDS011;5536;49.602;10.980;2023-11-21T09:00:11;2.27;;;2.07;;
10967;SDS011;5536;49.602;10.980;2023-11-21T09:02:42;2.30;;;2.10;;
10967;SDS011;5536;49.602;10.980;2023-11-21T09:05:09;1.87;;;1.77;;
10967;SDS011;5536;49.602;10.980;2023-11-21T09:07:37;1.83;;;1.73;;
10967;SDS011;5536;49.602;10.980;2023-11-21T09:10:06;1.77;;;1.67;;
10967;SDS011;5536;49.602;10.980;2023-11-21T09:12:34;2.87;;;2.67;;
10967;SDS011;5536;49.602;10.980;2023-11-21T09:15:04;2.57;;;2.37;;
10967;SDS011;5536;49.602;10.980;2023-11-21T09:17:32;1.83;;;1.73;;
10967;SDS011;5536;49.602;10.980;2023-11-21T09:20:00;1.90;;;1.80;;
10967;SDS011;5536;49.602;10.980;2023-11-21T09:22:28;3.03;;;2.10;;
10967;SDS011;5536;49.602;10.980;2023-11-21T09:24:56;1.37;;;1.37;;
10967;SDS011;5536;49.602;10.980;2023-11-21T09:27:23;2.13;;;1.93;;
10967;SDS011;5536;49.602;10.980;2023-11-21T09:29:51;1.93;;;1.60;;
10967;SDS011;5536;49.602;10.980;2023-11-21T09:32:20;3.50;;;2.73;;
10967;SDS011;5536;49.602;10.980;2023-11-21T09:34:47;1.90;;;1.80;;
10967;SDS011;5536;49.602;10.980;2023-11-21T09:37:15;7.97;;;6.40;;
10967;SDS011;5536;49.602;10.980;2023-11-21T09:39:42;6.37;;;3.40;;
10967;SDS011;5536;49.602;10.980;2023-11-21T09:47:06;2.20;;;2.00;;
10967;SDS011;5536;49.602;10.980;2023-11-21T09:53:17;2.00;;;1.90;;
10967;SDS011;5536;49.602;10.980;2023-11-21T09:55:52;1.70;;;1.60;;
10967;SDS011;5536;49.602;10.980;2023-11-21T09:59:15;1.90;;;1.70;;
10967;SDS011;5536;49.602;10.980;2023-11-21T10:02:09;1.43;;;1.33;;
10967;SDS011;5536;49.602;10.980;2023-11-21T10:05:03;1.60;;;1.50;;
10967;SDS011;5536;49.602;10.980;2023-11-21T10:07:31;4.17;;;2.03;;
10967;SDS011;5536;49.602;10.980;2023-11-21T10:10:02;2.70;;;1.67;;
10967;SDS011;5536;49.602;10.980;2023-11-21T10:12:29;2.23;;;1.60;;
10967;SDS011;5536;49.602;10.980;2023-11-21T10:14:58;2.03;;;1.80;;
10967;SDS011;5536;49.602;10.980;2023-11-21T10:17:27;1.80;;;1.70;;
10967;SDS011;5536;49.602;10.980;2023-11-21T10:19:57;1.77;;;1.60;;
10967;SDS011;5536;49.602;10.980;2023-11-21T10:22:24;1.63;;;1.53;;
10967;SDS011;5536;49.602;10.980;2023-11-21T10:24:52;1.13;;;1.13;;
10967;SDS011;5536;49.602;10.980;2023-11-21T10:27:20;1.43;;;1.40;;
10967;SDS011;5536;49.602;10.980;2023-11-21T10:29:48;1.90;;;1.80;;
10967;SDS011;5536;49.602;10.980;2023-11-21T10:32:18;2.47;;;2.27;;
10967;SDS011;5536;49.602;10.980;2023-11-21T10:34:55;1.97;;;1.87;;
10967;SDS011;5536;49.602;10.980;2023-11-21T10:37:22;1.70;;;1.63;;
10967;SDS011;5536;49.602;10.980;2023-11-21T10:39:49;2.63;;;1.90;;
10967;SDS011;5536;49.602;10.980;2023-11-21T10:42:22;1.50;;;1.40;;
10967;SDS011;5536;49.602;10.980;2023-11-21T10:44:50;1.20;;;1.20;;
10967;SDS011;5536;49.602;10.980;2023-11-21T10:47:17;1.50;;;1.50;;
10967;SDS011;5536;49.602;10.980;2023-11-21T10:49:58;1.90;;;1.80;;
10967;SDS011;5536;49.602;10.980;2023-11-21T10:52:27;2.67;;;1.90;;
10967;SDS011;5536;49.602;10.980;2023-11-21T10:54:54;2.10;;;1.90;;
10967;SDS011;5536;49.602;10.980;2023-11-21T10:57:24;1.70;;;1.60;;
10967;SDS011;5536;49.602;10.980;2023-11-21T10:59:52;2.17;;;2.07;;
10967;SDS011;5536;49.602;10.980;2023-11-21T11:02:22;1.77;;;1.67;;
10967;SDS011;5536;49.602;10.980;2023-11-21T11:04:53;2.00;;;1.80;;
10967;SDS011;5536;49.602;10.980;2023-11-21T11:07:23;1.70;;;1.60;;
10967;SDS011;5536;49.602;10.980;2023-11-21T11:09:53;2.63;;;2.17;;
10967;SDS011;5536;49.602;10.980;2023-11-21T11:12:21;1.50;;;1.50;;
10967;SDS011;5536;49.602;10.980;2023-11-21T11:14:48;1.83;;;1.73;;
10967;SDS011;5536;49.602;10.980;2023-11-21T11:17:15;2.13;;;1.90;;
10967;SDS011;5536;49.602;10.980;2023-11-21T11:19:45;2.70;;;1.83;;
10967;SDS011;5536;49.602;10.980;2023-11-21T11:22:16;2.10;;;1.90;;
10967;SDS011;5536;49.602;10.980;2023-11-21T11:27:48;1.70;;;1.60;;
10967;SDS011;5536;49.602;10.980;2023-11-21T11:30:23;2.17;;;1.70;;
10967;SDS011;5536;49.602;10.980;2023-11-21T11:33:05;1.30;;;1.30;;
10967;SDS011;5536;49.602;10.980;2023-11-21T11:35:38;1.60;;;1.37;;
10967;SDS011;5536;49.602;10.980;2023-11-21T11:38:16;1.40;;;1.30;;
10967;SDS011;5536;49.602;10.980;2023-11-21T11:40:46;1.50;;;1.40;;
10967;SDS011;5536;49.602;10.980;2023-11-21T11:43:13;1.47;;;1.40;;
10967;SDS011;5536;49.602;10.980;2023-11-21T11:45:50;1.67;;;1.57;;
10967;SDS011;5536;49.602;10.980;2023-11-21T11:48:19;1.50;;;1.43;;
10967;SDS011;5536;49.602;10.980;2023-11-21T11:51:01;8.43;;;1.90;;
10967;SDS011;5536;49.602;10.980;2023-11-21T11:53:39;1.70;;;1.60;;
10967;SDS011;5536;49.602;10.980;2023-11-21T11:56:23;1.57;;;1.47;;
10967;SDS011;5536;49.602;10.980;2023-11-21T11:58:53;1.70;;;1.60;;
10967;SDS011;5536;49.602;10.980;2023-11-21T12:01:22;1.40;;;1.30;;
10967;SDS011;5536;49.602;10.980;2023-11-21T12:07:00;4.20;;;1.70;;
10967;SDS011;5536;49.602;10.980;2023-11-21T12:09:31;1.40;;;1.40;;
10967;SDS011;5536;49.602;10.980;2023-11-21T12:12:00;3.90;;;1.40;;
10967;SDS011;5536;49.602;10.980;2023-11-21T12:14:29;1.73;;;1.63;;
10967;SDS011;5536;49.602;10.980;2023-11-21T12:16:57;1.63;;;1.40;;
10967;SDS011;5536;49.602;10.980;2023-11-21T12:19:25;1.43;;;1.33;;
10967;SDS011;5536;49.602;10.980;2023-11-21T12:21:52;1.40;;;1.33;;
10967;SDS011;5536;49.602;10.980;2023-11-21T12:24:21;4.33;;;1.87;;
10967;SDS011;5536;49.602;10.980;2023-11-21T12:26:49;1.57;;;1.47;;
10967;SDS011;5536;49.602;10.980;2023-11-21T12:29:17;1.10;;;1.10;;
10967;SDS011;5536;49.602;10.980;2023-11-21T12:31:44;1.67;;;1.30;;
10967;SDS011;5536;49.602;10.980;2023-11-21T12:34:12;1.33;;;1.30;;
10967;SDS011;5536;49.602;10.980;2023-11-21T12:36:39;1.80;;;1.20;;
10967;SDS011;5536;49.602;10.980;2023-11-21T12:39:06;2.07;;;1.47;;
10967;SDS011;5536;49.602;10.980;2023-11-21T12:41:35;1.17;;;1.00;;
10967;SDS011;5536;49.602;10.980;2023-11-21T12:44:02;3.30;;;1.30;;
10967;SDS011;5536;49.602;10.980;2023-11-21T12:46:30;1.17;;;1.17;;
10967;SDS011;5536;49.602;10.980;2023-11-21T12:48:59;1.33;;;1.20;;
10967;SDS011;5536;49.602;10.980;2023-11-21T12:51:27;1.40;;;1.30;;
10967;SDS011;5536;49.602;10.980;2023-11-21T12:53:55;1.50;;;1.40;;
10967;SDS011;5536;49.602;10.980;2023-11-21T12:56:23;1.37;;;1.30;;
10967;SDS011;5536;49.602;10.980;2023-11-21T12:58:53;1.00;;;1.00;;
10967;SDS011;5536;49.602;10.980;2023-11-21T13:01:24;1.30;;;1.30;;
10967;SDS011;5536;49.602;10.980;2023-11-21T13:03:56;3.03;;;1.67;;
10967;SDS011;5536;49.602;10.980;2023-11-21T13:06:25;3.70;;;1.50;;
10967;SDS011;5536;49.602;10.980;2023-11-21T13:08:52;1.40;;;1.30;;
10967;SDS011;5536;49.602;10.980;2023-11-21T13:11:22;1.33;;;1.00;;
10967;SDS011;5536;49.602;10.980;2023-11-21T13:13:51;1.10;;;1.10;;
10967;SDS011;5536;49.602;10.980;2023-11-21T13:16:19;1.03;;;1.03;;
10967;SDS011;5536;49.602;10.980;2023-11-21T13:18:46;0.67;;;0.67;;
10967;SDS011;5536;49.602;10.980;2023-11-21T13:21:15;1.52;;;1.42;;
10967;SDS011;5536;49.602;10.980;2023-11-21T13:23:44;0.60;;;0.60;;
10967;SDS011;5536;49.602;10.980;2023-11-21T13:26:13;1.10;;;1.00;;
10967;SDS011;5536;49.602;10.980;2023-11-21T13:28:41;0.80;;;0.80;;
10967;SDS011;5536;49.602;10.980;2023-11-21T13:31:11;0.75;;;0.75;;
10967;SDS011;5536;49.602;10.980;2023-11-21T13:33:46;0.70;;;0.70;;
10967;SDS011;5536;49.602;10.980;2023-11-21T13:36:21;1.30;;;0.88;;
10967;SDS011;5536;49.602;10.980;2023-11-21T13:38:52;0.73;;;0.73;;
10967;SDS011;5536;49.602;10.980;2023-11-21T13:41:20;0.70;;;0.70;;
10967;SDS011;5536;49.602;10.980;2023-11-21T13:43:53;1.23;;;1.17;;
10967;SDS011;5536;49.602;10.980;2023-11-21T13:46:28;2.03;;;1.17;;
10967;SDS011;5536;49.602;10.980;2023-11-21T13:49:02;1.17;;;1.07;;
10967;SDS011;5536;49.602;10.980;2023-11-21T13:51:33;1.40;;;1.30;;
10967;SDS011;5536;49.602;10.980;2023-11-21T13:54:05;1.60;;;1.50;;
10967;SDS011;5536;49.602;10.980;2023-11-21T13:56:34;1.13;;;1.03;;
10967;SDS011;5536;49.602;10.980;2023-11-21T13:59:02;1.73;;;1.30;;
10967;SDS011;5536;49.602;10.980;2023-11-21T14:01:38;2.83;;;1.60;;
10967;SDS011;5536;49.602;10.980;2023-11-21T14:04:19;1.00;;;1.00;;
10967;SDS011;5536;49.602;10.980;2023-11-21T14:07:02;1.07;;;1.03;;
10967;SDS011;5536;49.602;10.980;2023-11-21T14:09:45;1.80;;;1.00;;
10967;SDS011;5536;49.602;10.980;2023-11-21T14:12:14;3.17;;;1.87;;
10967;SDS011;5536;49.602;10.980;2023-11-21T14:14:41;1.17;;;0.93;;
10967;SDS011;5536;49.602;10.980;2023-11-21T14:17:09;1.37;;;1.23;;
10967;SDS011;5536;49.602;10.980;2023-11-21T14:19:37;1.30;;;1.20;;
10967;SDS011;5536;49.602;10.980;2023-11-21T14:22:09;2.10;;;1.57;;
10967;SDS011;5536;49.602;10.980;2023-11-21T14:24:36;1.10;;;1.10;;
10967;SDS011;5536;49.602;10.980;2023-11-21T14:27:09;1.00;;;1.00;;
10967;SDS011;5536;49.602;10.980;2023-11-21T14:29:36;1.37;;;1.00;;
10967;SDS011;5536;49.602;10.980;2023-11-21T14:32:05;2.37;;;1.53;;
10967;SDS011;5536;49.602;10.980;2023-11-21T14:34:33;1.30;;;1.20;;
10967;SDS011;5536;49.602;10.980;2023-11-21T14:37:00;1.07;;;1.07;;
10967;SDS011;5536;49.602;10.980;2023-11-21T14:39:30;2.60;;;1.47;;
10967;SDS011;5536;49.602;10.980;2023-11-21T14:42:05;2.20;;;1.27;;
10967;SDS011;5536;49.602;10.980;2023-11-21T14:44:33;1.30;;;1.20;;
10967;SDS011;5536;49.602;10.980;2023-11-21T14:47:03;2.23;;;1.30;;
10967;SDS011;5536;49.602;10.980;2023-11-21T14:49:39;4.57;;;1.60;;
10967;SDS011;5536;49.602;10.980;2023-11-21T14:52:20;3.50;;;2.07;;
10967;SDS011;5536;49.602;10.980;2023-11-21T14:55:00;2.17;;;1.33;;
10967;SDS011;5536;49.602;10.980;2023-11-21T14:57:50;1.67;;;1.57;;
10967;SDS011;5536;49.602;10.980;2023-11-21T15:00:19;4.97;;;1.73;;
10967;SDS011;5536;49.602;10.980;2023-11-21T15:03:09;2.30;;;2.10;;
10967;SDS011;5536;49.602;10.980;2023-11-21T15:05:57;1.53;;;1.37;;
10967;SDS011;5536;49.602;10.980;2023-11-21T15:08:23;2.17;;;2.00;;
10967;SDS011;5536;49.602;10.980;2023-11-21T15:10:58;2.37;;;2.00;;
10967;SDS011;5536;49.602;10.980;2023-11-21T15:13:24;3.17;;;1.90;;